Time;durP1;ratioP1;P1;durP2;ratioP2;P2;SDS_P1;SDS_P2;PMS_P1;PMS_P2;Temp;Humidity;BMP_temperature;BMP_pressure;BME280_temperature;BME280_humidity;BME280_pressure;Samples;Min_cycle;Max_cycle;Signal;HPM_P1;HPM_P2
2023/03/31 00:01:03;;;;;;;2.20;1.40;;;;;;;;;;4976276;28;20267;-36
2023/03/31 00:03:32;;;;;;;2.60;1.63;;;;;;;;;;4980929;28;20610;-43
2023/03/31 00:06:00;;;;;;;5.30;1.90;;;;;;;;;;4991608;28;20224;-34
2023/03/31 00:08:28;;;;;;;2.50;1.60;;;;;;;;;;4988268;28;20222;-40
2023/03/31 00:10:58;;;;;;;4.00;1.83;;;;;;;;;;4978855;28;20212;-37
2023/03/31 00:13:26;;;;;;;3.73;1.83;;;;;;;;;;4972004;28;20225;-44
2023/03/31 00:15:58;;;;;;;5.33;1.97;;;;;;;;;;4975082;28;21006;-39
2023/03/31 00:18:25;;;;;;;4.43;2.60;;;;;;;;;;4982431;28;20207;-42
2023/03/31 00:20:53;;;;;;;2.47;2.00;;;;;;;;;;4983867;28;20279;-36
2023/03/31 00:23:26;;;;;;;4.53;2.10;;;;;;;;;;4991601;28;20583;-43
2023/03/31 00:25:54;;;;;;;6.03;2.40;;;;;;;;;;4985998;28;20212;-38
2023/03/31 00:28:21;;;;;;;3.03;1.97;;;;;;;;;;4987133;28;20207;-43
2023/03/31 00:30:48;;;;;;;3.60;2.30;;;;;;;;;;4980405;28;20208;-42
2023/03/31 00:33:17;;;;;;;2.77;2.17;;;;;;;;;;4972175;28;20230;-35
2023/03/31 00:35:44;;;;;;;4.83;2.40;;;;;;;;;;4971630;28;20236;-39
2023/03/31 00:38:14;;;;;;;3.97;2.30;;;;;;;;;;4974182;28;20216;-40
2023/03/31 00:40:46;;;;;;;5.07;2.00;;;;;;;;;;4981840;28;20239;-44
2023/03/31 00:43:24;;;;;;;5.53;2.30;;;;;;;;;;4983727;28;20227;-37
2023/03/31 00:45:53;;;;;;;3.57;1.70;;;;;;;;;;4974474;28;20278;-43
2023/03/31 00:48:22;;;;;;;3.27;1.77;;;;;;;;;;4981486;28;20242;-43
2023/03/31 00:50:51;;;;;;;2.67;1.60;;;;;;;;;;4983376;28;20251;-43
2023/03/31 00:53:21;;;;;;;3.47;1.90;;;;;;;;;;4990979;28;20231;-43
2023/03/31 00:55:52;;;;;;;4.50;2.60;;;;;;;;;;4984905;28;20201;-37
2023/03/31 00:58:20;;;;;;;2.17;1.93;;;;;;;;;;4987570;28;20219;-40
2023/03/31 01:00:47;;;;;;;5.03;2.57;;;;;;;;;;4976391;28;20745;-42
2023/03/31 01:03:17;;;;;;;4.37;3.00;;;;;;;;;;4984067;28;20693;-37
2023/03/31 01:05:49;;;;;;;5.47;2.60;;;;;;;;;;4978730;28;20588;-40
2023/03/31 01:08:16;;;;;;;3.07;1.97;;;;;;;;;;4972166;28;20423;-43
2023/03/31 01:10:46;;;;;;;2.87;2.20;;;;;;;;;;4976873;28;20298;-40
2023/03/31 01:13:14;;;;;;;3.90;2.10;;;;;;;;;;4989884;28;20234;-41
2023/03/31 01:15:42;;;;;;;5.20;2.50;;;;;;;;;;4984600;28;20647;-42
2023/03/31 01:18:10;;;;;;;3.87;2.30;;;;;;;;;;4978689;28;20206;-42
2023/03/31 01:20:43;;;;;;;3.20;2.33;;;;;;;;;;4987556;28;20203;-40
2023/03/31 01:23:25;;;;;;;3.17;2.13;;;;;;;;;;4989786;28;20223;-43
2023/03/31 01:26:17;;;;;;;3.13;2.13;;;;;;;;;;4985239;28;20226;-43
2023/03/31 01:28:48;;;;;;;2.50;1.90;;;;;;;;;;4986850;28;20192;-41
2023/03/31 01:31:33;;;;;;;3.07;1.93;;;;;;;;;;4971474;28;20311;-38
2023/03/31 01:34:07;;;;;;;2.93;2.10;;;;;;;;;;4972510;28;20235;-40
2023/03/31 01:36:52;;;;;;;3.87;1.83;;;;;;;;;;4990919;28;20192;-37
2023/03/31 01:39:31;;;;;;;4.27;2.00;;;;;;;;;;4975534;28;20214;-44
2023/03/31 01:42:02;;;;;;;2.67;2.00;;;;;;;;;;4983292;28;20206;-40
2023/03/31 01:44:34;;;;;;;2.27;1.87;;;;;;;;;;4988609;28;20232;-44
2023/03/31 01:47:03;;;;;;;4.43;2.37;;;;;;;;;;4991047;28;20224;-37
2023/03/31 01:49:35;;;;;;;2.93;2.20;;;;;;;;;;4990741;28;20295;-37
2023/03/31 01:52:05;;;;;;;2.23;2.00;;;;;;;;;;4990646;28;20208;-38
2023/03/31 01:54:38;;;;;;;5.27;2.10;;;;;;;;;;4980494;28;20236;-42
2023/03/31 01:57:10;;;;;;;4.60;2.30;;;;;;;;;;4979452;28;20201;-42
2023/03/31 01:59:39;;;;;;;3.20;1.73;;;;;;;;;;4971056;28;20566;-42
2023/03/31 02:02:09;;;;;;;3.83;2.37;;;;;;;;;;4975971;28;20250;-40
2023/03/31 02:04:41;;;;;;;4.33;2.27;;;;;;;;;;4985092;28;20220;-40
2023/03/31 02:07:10;;;;;;;4.93;1.93;;;;;;;;;;4971114;28;20208;-40
2023/03/31 02:09:40;;;;;;;4.50;2.63;;;;;;;;;;4978987;28;20211;-43
2023/03/31 02:12:10;;;;;;;2.20;2.00;;;;;;;;;;4978163;28;20209;-40
2023/03/31 02:14:39;;;;;;;4.47;2.57;;;;;;;;;;4970588;28;20664;-39
2023/03/31 02:17:08;;;;;;;3.17;2.10;;;;;;;;;;4976190;28;20239;-42
2023/03/31 02:19:38;;;;;;;7.67;2.70;;;;;;;;;;4975727;28;20857;-41
2023/03/31 02:22:06;;;;;;;4.53;2.30;;;;;;;;;;4995731;28;20270;-39
2023/03/31 02:24:35;;;;;;;4.40;2.60;;;;;;;;;;4990844;28;20687;-40
2023/03/31 02:27:05;;;;;;;2.50;2.00;;;;;;;;;;4988517;28;20247;-40
2023/03/31 02:29:34;;;;;;;4.80;2.43;;;;;;;;;;4979738;28;20292;-40
2023/03/31 02:32:04;;;;;;;2.83;2.03;;;;;;;;;;4986531;28;20215;-41
2023/03/31 02:34:31;;;;;;;4.23;2.27;;;;;;;;;;4992124;28;20224;-43
2023/03/31 02:36:59;;;;;;;4.20;2.47;;;;;;;;;;4994539;28;20586;-42
2023/03/31 02:39:28;;;;;;;4.83;1.87;;;;;;;;;;4984733;28;20259;-42
2023/03/31 02:41:55;;;;;;;3.63;1.87;;;;;;;;;;4985502;28;20204;-40
2023/03/31 02:44:22;;;;;;;6.17;1.73;;;;;;;;;;4976411;28;20232;-44
2023/03/31 02:46:51;;;;;;;4.40;1.97;;;;;;;;;;4983014;28;20224;-40
2023/03/31 02:49:18;;;;;;;4.50;1.60;;;;;;;;;;4977718;28;20817;-41
2023/03/31 02:51:56;;;;;;;5.57;1.60;;;;;;;;;;4992855;28;20204;-41
2023/03/31 02:54:30;;;;;;;6.47;2.00;;;;;;;;;;4988609;28;20224;-38
2023/03/31 02:57:12;;;;;;;4.07;1.90;;;;;;;;;;4986083;28;20218;-40
2023/03/31 02:59:47;;;;;;;4.77;1.90;;;;;;;;;;4989138;28;20375;-40
2023/03/31 03:02:19;;;;;;;6.73;2.00;;;;;;;;;;4984159;28;20843;-42
2023/03/31 03:04:55;;;;;;;4.20;2.00;;;;;;;;;;4989809;28;20280;-44
2023/03/31 03:07:25;;;;;;;3.10;2.13;;;;;;;;;;4974120;28;20211;-36
2023/03/31 03:09:58;;;;;;;5.07;2.30;;;;;;;;;;4973782;28;20393;-44
2023/03/31 03:12:26;;;;;;;4.63;1.87;;;;;;;;;;4980690;28;20270;-37
2023/03/31 03:14:56;;;;;;;4.20;2.27;;;;;;;;;;4980908;28;20690;-34
2023/03/31 03:17:26;;;;;;;3.43;1.90;;;;;;;;;;4989086;28;20208;-40
2023/03/31 03:19:54;;;;;;;3.47;1.87;;;;;;;;;;4988585;28;20916;-36
2023/03/31 03:22:22;;;;;;;3.33;2.30;;;;;;;;;;4977584;28;20204;-43
2023/03/31 03:24:49;;;;;;;5.43;2.07;;;;;;;;;;4985576;28;20204;-37
2023/03/31 03:27:16;;;;;;;3.03;2.07;;;;;;;;;;4985053;28;20311;-37
2023/03/31 03:29:43;;;;;;;5.80;2.30;;;;;;;;;;4986790;28;20968;-38
2023/03/31 03:32:11;;;;;;;5.67;1.97;;;;;;;;;;4982612;28;20208;-40
2023/03/31 03:34:39;;;;;;;4.80;2.17;;;;;;;;;;4992046;28;20200;-40
2023/03/31 03:37:07;;;;;;;5.13;1.87;;;;;;;;;;4983798;28;20201;-38
2023/03/31 03:39:34;;;;;;;2.30;2.00;;;;;;;;;;4983820;28;20424;-40
2023/03/31 03:42:01;;;;;;;3.27;1.77;;;;;;;;;;4980871;28;20255;-37
2023/03/31 03:44:28;;;;;;;3.00;1.90;;;;;;;;;;4972251;28;20228;-41
2023/03/31 03:46:56;;;;;;;3.10;2.07;;;;;;;;;;4975702;28;20219;-38
2023/03/31 03:49:23;;;;;;;3.33;2.33;;;;;;;;;;4988764;28;20196;-39
2023/03/31 03:51:51;;;;;;;2.63;1.67;;;;;;;;;;4992207;28;20201;-39
2023/03/31 03:54:19;;;;;;;4.07;2.00;;;;;;;;;;4983466;28;20707;-40
2023/03/31 03:56:46;;;;;;;3.70;1.83;;;;;;;;;;4980158;28;20207;-41
2023/03/31 03:59:13;;;;;;;3.27;2.03;;;;;;;;;;4987237;28;20204;-40
2023/03/31 04:01:40;;;;;;;3.57;2.23;;;;;;;;;;4983617;28;20227;-43
2023/03/31 04:04:07;;;;;;;2.83;2.00;;;;;;;;;;4978230;28;20315;-42
2023/03/31 04:06:34;;;;;;;2.27;2.07;;;;;;;;;;4972690;28;20224;-38
2023/03/31 04:09:03;;;;;;;2.90;2.00;;;;;;;;;;4971274;28;20307;-39
2023/03/31 04:11:30;;;;;;;4.20;2.00;;;;;;;;;;4980502;28;20208;-37
2023/03/31 04:13:57;;;;;;;2.67;1.80;;;;;;;;;;4970215;28;20235;-38
2023/03/31 04:16:25;;;;;;;4.77;2.23;;;;;;;;;;4974244;28;20677;-39
2023/03/31 04:18:55;;;;;;;4.63;2.13;;;;;;;;;;4979718;28;20676;-42
2023/03/31 04:21:23;;;;;;;5.47;2.30;;;;;;;;;;4971754;28;20295;-44
2023/03/31 04:23:57;;;;;;;4.23;2.40;;;;;;;;;;4974546;28;20231;-41
2023/03/31 04:26:30;;;;;;;3.20;1.97;;;;;;;;;;4983034;28;20270;-37
2023/03/31 04:28:59;;;;;;;3.67;2.20;;;;;;;;;;4978491;28;20844;-37
2023/03/31 04:31:26;;;;;;;4.50;2.57;;;;;;;;;;4985407;28;20302;-39
2023/03/31 04:33:53;;;;;;;5.03;2.33;;;;;;;;;;4990826;28;20725;-44
2023/03/31 04:36:21;;;;;;;2.77;2.27;;;;;;;;;;4975330;28;20211;-41
2023/03/31 04:38:49;;;;;;;5.97;2.43;;;;;;;;;;4971203;28;20204;-36
2023/03/31 04:41:16;;;;;;;4.87;2.00;;;;;;;;;;4979047;28;20216;-42
2023/03/31 04:43:45;;;;;;;5.83;2.07;;;;;;;;;;4972885;28;20221;-37
2023/03/31 04:46:12;;;;;;;5.07;2.90;;;;;;;;;;4981712;28;20396;-40
2023/03/31 04:48:39;;;;;;;3.90;2.27;;;;;;;;;;4984757;28;20204;-40
2023/03/31 04:51:07;;;;;;;4.83;2.27;;;;;;;;;;4971413;28;20219;-38
2023/03/31 04:53:34;;;;;;;2.90;2.00;;;;;;;;;;4969554;28;20283;-38
2023/03/31 04:56:02;;;;;;;2.50;2.30;;;;;;;;;;4975876;28;20242;-37
2023/03/31 04:58:29;;;;;;;5.67;2.60;;;;;;;;;;4984329;28;20200;-40
2023/03/31 05:00:58;;;;;;;5.07;2.03;;;;;;;;;;4977783;28;20403;-42
2023/03/31 05:03:25;;;;;;;11.33;5.10;;;;;;;;;;4970218;28;20236;-41
2023/03/31 05:05:53;;;;;;;7.10;3.13;;;;;;;;;;4983565;28;20212;-43
2023/03/31 05:08:20;;;;;;;8.43;3.57;;;;;;;;;;4977399;28;20235;-40
2023/03/31 05:10:47;;;;;;;8.13;2.73;;;;;;;;;;4986475;28;20200;-37
2023/03/31 05:13:14;;;;;;;3.03;2.73;;;;;;;;;;4990260;28;20234;-37
2023/03/31 05:15:43;;;;;;;4.63;2.87;;;;;;;;;;4981917;28;20576;-39
2023/03/31 05:18:12;;;;;;;4.33;2.37;;;;;;;;;;4980773;28;20251;-40
2023/03/31 05:20:39;;;;;;;4.87;3.30;;;;;;;;;;4979864;28;20213;-43
2023/03/31 05:23:08;;;;;;;5.57;3.67;;;;;;;;;;4976797;28;20234;-35
2023/03/31 05:25:36;;;;;;;3.03;2.67;;;;;;;;;;4977516;28;20287;-41
2023/03/31 05:28:03;;;;;;;3.73;2.73;;;;;;;;;;4984666;28;20309;-36
2023/03/31 05:30:30;;;;;;;3.07;2.77;;;;;;;;;;4978793;28;20213;-39
2023/03/31 05:32:57;;;;;;;4.20;2.67;;;;;;;;;;4978613;28;20238;-33
2023/03/31 05:35:26;;;;;;;7.80;3.00;;;;;;;;;;4980518;28;20683;-40
2023/03/31 05:37:53;;;;;;;10.77;3.47;;;;;;;;;;4978269;28;20207;-39
2023/03/31 05:40:20;;;;;;;6.67;3.03;;;;;;;;;;4973280;28;20207;-40
2023/03/31 05:42:47;;;;;;;3.10;2.37;;;;;;;;;;4979441;28;20219;-41
2023/03/31 05:45:14;;;;;;;5.80;2.80;;;;;;;;;;4980945;28;20206;-45
2023/03/31 05:47:42;;;;;;;8.97;3.10;;;;;;;;;;4981896;28;20481;-40
2023/03/31 05:50:10;;;;;;;5.00;3.87;;;;;;;;;;4982158;28;20204;-39
2023/03/31 05:52:39;;;;;;;8.10;7.30;;;;;;;;;;4985829;28;20236;-41
2023/03/31 05:55:07;;;;;;;6.07;3.30;;;;;;;;;;4982132;28;20208;-41
2023/03/31 05:57:34;;;;;;;7.67;5.97;;;;;;;;;;4979235;28;20204;-38
2023/03/31 06:00:01;;;;;;;4.77;2.97;;;;;;;;;;4972621;28;20614;-39
2023/03/31 06:02:30;;;;;;;4.47;3.17;;;;;;;;;;4981080;28;20487;-39
2023/03/31 06:04:57;;;;;;;4.17;3.57;;;;;;;;;;4978646;28;20204;-41
2023/03/31 06:07:25;;;;;;;6.47;2.77;;;;;;;;;;4979371;28;20216;-40
2023/03/31 06:09:53;;;;;;;3.23;2.70;;;;;;;;;;4977800;28;20200;-40
2023/03/31 06:12:20;;;;;;;4.40;2.93;;;;;;;;;;4978480;28;20240;-40
2023/03/31 06:14:48;;;;;;;9.00;3.37;;;;;;;;;;4976332;28;20207;-37
2023/03/31 06:17:15;;;;;;;4.10;3.60;;;;;;;;;;4983006;28;20210;-39
2023/03/31 06:19:42;;;;;;;8.70;2.97;;;;;;;;;;4985953;28;20199;-38
2023/03/31 06:22:09;;;;;;;4.10;3.23;;;;;;;;;;4986663;28;20204;-40
2023/03/31 06:24:36;;;;;;;4.67;3.40;;;;;;;;;;4986258;28;20223;-37
2023/03/31 06:27:06;;;;;;;4.67;3.13;;;;;;;;;;4980598;28;20844;-33
2023/03/31 06:29:33;;;;;;;4.57;2.80;;;;;;;;;;4977435;28;20238;-42
2023/03/31 06:32:01;;;;;;;8.77;3.33;;;;;;;;;;4971793;28;20219;-35
2023/03/31 06:34:28;;;;;;;7.10;3.50;;;;;;;;;;4983479;28;20224;-39
2023/03/31 06:36:55;;;;;;;8.20;3.23;;;;;;;;;;4983400;28;20222;-41
2023/03/31 06:39:22;;;;;;;11.77;3.40;;;;;;;;;;4981714;28;20208;-39
2023/03/31 06:41:50;;;;;;;4.83;3.30;;;;;;;;;;4983281;28;20213;-37
2023/03/31 06:44:21;;;;;;;4.60;3.43;;;;;;;;;;4984299;28;20228;-37
2023/03/31 06:46:49;;;;;;;10.00;3.20;;;;;;;;;;4986316;28;20613;-34
2023/03/31 06:49:16;;;;;;;8.00;3.33;;;;;;;;;;4984912;28;20204;-38
2023/03/31 06:51:43;;;;;;;8.10;3.90;;;;;;;;;;4982794;28;20203;-42
2023/03/31 06:54:10;;;;;;;7.60;3.63;;;;;;;;;;4982611;28;20227;-35
2023/03/31 06:56:37;;;;;;;6.90;4.33;;;;;;;;;;4980571;28;20215;-36
2023/03/31 06:59:05;;;;;;;10.63;4.20;;;;;;;;;;4976885;28;20197;-40
2023/03/31 07:01:37;;;;;;;7.50;4.20;;;;;;;;;;4984369;28;20207;-41
2023/03/31 07:04:05;;;;;;;10.60;4.50;;;;;;;;;;4972194;28;20316;-41
2023/03/31 07:06:32;;;;;;;8.13;3.80;;;;;;;;;;4989198;28;20745;-38
2023/03/31 07:08:59;;;;;;;4.43;3.07;;;;;;;;;;4977164;28;20449;-41
2023/03/31 07:11:26;;;;;;;6.77;2.93;;;;;;;;;;4980878;28;20424;-41
2023/03/31 07:13:53;;;;;;;5.47;2.87;;;;;;;;;;4993496;28;20226;-35
2023/03/31 07:16:21;;;;;;;5.43;2.87;;;;;;;;;;4982137;28;20208;-40
2023/03/31 07:18:52;;;;;;;7.83;3.50;;;;;;;;;;4983230;28;20208;-37
2023/03/31 07:21:20;;;;;;;7.00;3.47;;;;;;;;;;4982183;28;20337;-36
2023/03/31 07:23:47;;;;;;;6.30;3.83;;;;;;;;;;4974678;28;20237;-39
2023/03/31 07:26:14;;;;;;;8.60;3.87;;;;;;;;;;4977381;28;20215;-38
2023/03/31 07:28:50;;;;;;;6.60;3.10;;;;;;;;;;4989159;28;20231;-39
2023/03/31 07:31:18;;;;;;;6.33;3.50;;;;;;;;;;4984648;28;20307;-38
2023/03/31 07:33:45;;;;;;;5.10;3.53;;;;;;;;;;4983615;28;20660;-43
2023/03/31 07:36:13;;;;;;;3.47;2.70;;;;;;;;;;4987683;28;20209;-36
2023/03/31 07:38:41;;;;;;;5.50;2.67;;;;;;;;;;4987829;28;20258;-39
2023/03/31 07:41:11;;;;;;;5.40;2.50;;;;;;;;;;4992792;28;20208;-42
2023/03/31 07:43:38;;;;;;;4.03;2.23;;;;;;;;;;4975477;28;20611;-37
2023/03/31 07:46:07;;;;;;;2.20;1.60;;;;;;;;;;4977748;28;20216;-37
2023/03/31 07:48:34;;;;;;;1.40;1.13;;;;;;;;;;4982450;28;20637;-40
2023/03/31 07:51:01;;;;;;;2.93;1.50;;;;;;;;;;4973592;28;20207;-42
2023/03/31 07:53:31;;;;;;;2.47;1.30;;;;;;;;;;4975184;28;20228;-39
2023/03/31 07:55:58;;;;;;;2.70;1.00;;;;;;;;;;4980705;28;20659;-42
2023/03/31 07:58:25;;;;;;;2.00;1.40;;;;;;;;;;4986143;28;20286;-38
2023/03/31 08:00:53;;;;;;;1.43;1.20;;;;;;;;;;4986297;28;20212;-37
2023/03/31 08:03:20;;;;;;;2.67;1.40;;;;;;;;;;4987265;28;20603;-42
2023/03/31 08:05:47;;;;;;;2.63;1.60;;;;;;;;;;4995424;28;20214;-41
2023/03/31 08:08:14;;;;;;;2.90;1.97;;;;;;;;;;4991681;28;20263;-36
2023/03/31 08:10:42;;;;;;;2.53;1.37;;;;;;;;;;4979199;28;20283;-39
2023/03/31 08:13:10;;;;;;;4.27;1.60;;;;;;;;;;4982471;28;20771;-42
2023/03/31 08:15:37;;;;;;;1.43;1.33;;;;;;;;;;4974907;28;20208;-36
2023/03/31 08:18:04;;;;;;;2.17;1.57;;;;;;;;;;4986590;28;20215;-35
2023/03/31 08:20:31;;;;;;;1.50;1.40;;;;;;;;;;4980555;28;20287;-38
2023/03/31 08:22:59;;;;;;;2.43;1.17;;;;;;;;;;4974410;28;20232;-45
2023/03/31 08:25:26;;;;;;;1.57;1.30;;;;;;;;;;4980638;28;20299;-39
2023/03/31 08:27:55;;;;;;;1.97;1.47;;;;;;;;;;4979973;28;20228;-38
2023/03/31 08:30:23;;;;;;;2.40;1.43;;;;;;;;;;4978953;28;20295;-39
2023/03/31 08:32:50;;;;;;;2.13;1.00;;;;;;;;;;4980049;28;20234;-40
2023/03/31 08:35:18;;;;;;;2.17;1.33;;;;;;;;;;4974928;28;20275;-41
2023/03/31 08:37:46;;;;;;;1.40;1.30;;;;;;;;;;4980124;28;20198;-38
2023/03/31 08:40:15;;;;;;;1.17;1.00;;;;;;;;;;4986295;28;20211;-42
2023/03/31 08:42:43;;;;;;;1.00;0.90;;;;;;;;;;4987340;28;20234;-41
2023/03/31 08:45:16;;;;;;;1.00;0.80;;;;;;;;;;4978621;28;20749;-42
2023/03/31 08:47:44;;;;;;;1.27;0.90;;;;;;;;;;4987402;28;20231;-37
2023/03/31 08:50:14;;;;;;;1.27;0.93;;;;;;;;;;4978334;28;20198;-41
2023/03/31 08:52:42;;;;;;;1.60;0.70;;;;;;;;;;4975745;28;20746;-43
2023/03/31 08:55:13;;;;;;;2.27;0.73;;;;;;;;;;4979046;28;20303;-40
2023/03/31 08:57:43;;;;;;;0.97;0.80;;;;;;;;;;4977864;28;20647;-44
2023/03/31 09:00:15;;;;;;;1.97;0.80;;;;;;;;;;4968510;28;20236;-41
2023/03/31 09:02:47;;;;;;;2.17;0.80;;;;;;;;;;4976200;28;20229;-42
2023/03/31 09:05:32;;;;;;;0.83;0.83;;;;;;;;;;4978820;28;20200;-42
2023/03/31 09:08:03;;;;;;;1.30;0.57;;;;;;;;;;4970538;28;20229;-32
2023/03/31 09:10:38;;;;;;;0.60;0.60;;;;;;;;;;4985704;28;20251;-36
2023/03/31 09:13:11;;;;;;;2.10;0.70;;;;;;;;;;4991092;28;20306;-41
2023/03/31 09:15:41;;;;;;;1.40;0.70;;;;;;;;;;4983352;28;20295;-43
2023/03/31 09:18:14;;;;;;;1.87;0.77;;;;;;;;;;4984004;28;20306;-43
2023/03/31 09:20:45;;;;;;;2.00;0.90;;;;;;;;;;4980838;28;20224;-37
2023/03/31 09:23:21;;;;;;;2.20;0.90;;;;;;;;;;4971743;28;20231;-44
2023/03/31 09:25:48;;;;;;;1.13;0.60;;;;;;;;;;4985300;28;20428;-35
2023/03/31 09:28:20;;;;;;;1.27;0.83;;;;;;;;;;4982428;28;20231;-40
2023/03/31 09:30:49;;;;;;;2.80;0.70;;;;;;;;;;4984673;28;20208;-42
2023/03/31 09:33:18;;;;;;;1.23;1.10;;;;;;;;;;4972973;28;20601;-44
2023/03/31 09:35:46;;;;;;;1.90;0.70;;;;;;;;;;4973004;28;20232;-38
2023/03/31 09:38:14;;;;;;;2.07;0.53;;;;;;;;;;4969196;28;20216;-39
2023/03/31 09:40:41;;;;;;;0.77;0.70;;;;;;;;;;4975174;28;20215;-42
2023/03/31 09:43:09;;;;;;;1.80;0.60;;;;;;;;;;4976485;28;20264;-42
2023/03/31 09:45:37;;;;;;;1.70;0.73;;;;;;;;;;4974486;28;20211;-40
2023/03/31 09:48:08;;;;;;;2.10;0.60;;;;;;;;;;4975838;28;20232;-44
2023/03/31 09:50:38;;;;;;;2.23;0.67;;;;;;;;;;4970367;28;20232;-42
2023/03/31 09:53:06;;;;;;;0.77;0.57;;;;;;;;;;4969995;28;20236;-37
2023/03/31 09:55:37;;;;;;;3.20;0.73;;;;;;;;;;4981549;28;20214;-43
2023/03/31 09:58:07;;;;;;;0.63;0.40;;;;;;;;;;4981122;28;20205;-41
2023/03/31 10:00:34;;;;;;;1.73;0.80;;;;;;;;;;4979928;28;20215;-41
2023/03/31 10:03:06;;;;;;;1.97;0.77;;;;;;;;;;4977322;28;20707;-40
2023/03/31 10:05:36;;;;;;;2.53;0.90;;;;;;;;;;4988182;28;20199;-41
2023/03/31 10:08:21;;;;;;;1.80;0.70;;;;;;;;;;4988893;28;20319;-37
2023/03/31 10:10:50;;;;;;;2.90;0.60;;;;;;;;;;4979908;28;20212;-42
2023/03/31 10:13:18;;;;;;;0.17;0.17;;;;;;;;;;4982848;28;20257;-40
2023/03/31 10:15:50;;;;;;;2.17;0.70;;;;;;;;;;5247702;23;20293;-28
2023/03/31 10:18:33;;;;;;;3.47;1.00;;;;;;;;;;5023536;28;20198;-30
2023/03/31 10:21:08;;;;;;;2.87;1.10;;;;;;;;;;5024210;28;20275;-29
2023/03/31 10:23:51;;;;;;;2.40;0.80;;;;;;;;;;5029283;28;20240;-28
2023/03/31 10:26:32;;;;;;;3.80;1.00;;;;;;;;;;5014242;28;20216;-32
2023/03/31 10:29:20;;;;;;;1.77;0.87;;;;;;;;;;5015689;28;20222;-29
2023/03/31 10:31:50;;;;;;;2.10;0.93;;;;;;;;;;5027742;28;20218;-26
2023/03/31 10:34:22;;;;;;;2.43;0.70;;;;;;;;;;5029779;28;20216;-30
2023/03/31 10:36:55;;;;;;;1.97;0.60;;;;;;;;;;5030214;28;20204;-28
2023/03/31 10:39:33;;;;;;;5.50;1.13;;;;;;;;;;5031214;28;20677;-29
2023/03/31 10:42:05;;;;;;;5.10;1.43;;;;;;;;;;5014001;28;20213;-27
2023/03/31 10:44:35;;;;;;;2.53;0.70;;;;;;;;;;5013934;28;20230;-27
2023/03/31 10:47:18;;;;;;;4.10;1.10;;;;;;;;;;5016300;28;20249;-28
2023/03/31 10:49:58;;;;;;;4.97;1.27;;;;;;;;;;5014847;28;20232;-26
2023/03/31 10:52:31;;;;;;;4.27;1.00;;;;;;;;;;5014498;28;20290;-29
2023/03/31 10:55:02;;;;;;;3.83;1.10;;;;;;;;;;5024120;28;20307;-29
2023/03/31 10:57:37;;;;;;;0.87;0.40;;;;;;;;;;5023598;28;20232;-27
2023/03/31 11:00:14;;;;;;;4.30;1.03;;;;;;;;;;5030901;28;20252;-29
2023/03/31 11:02:49;;;;;;;3.07;1.07;;;;;;;;;;5021825;28;20257;-29
2023/03/31 11:05:45;;;;;;;2.73;0.80;;;;;;;;;;5023575;28;20212;-26
2023/03/31 11:08:30;;;;;;;3.67;1.27;;;;;;;;;;5013661;28;20199;-29
2023/03/31 11:11:10;;;;;;;2.90;0.90;;;;;;;;;;5014448;28;20211;-28
2023/03/31 11:13:46;;;;;;;1.77;0.60;;;;;;;;;;5012879;28;20232;-27
2023/03/31 11:16:30;;;;;;;4.27;0.90;;;;;;;;;;5020508;28;20243;-28
2023/03/31 11:19:12;;;;;;;3.73;1.00;;;;;;;;;;5012356;28;20200;-27
2023/03/31 11:21:58;;;;;;;4.37;1.27;;;;;;;;;;5184389;23;20254;-26
2023/03/31 11:24:43;;;;;;;4.33;0.90;;;;;;;;;;5022066;28;20287;-27
2023/03/31 11:27:23;;;;;;;4.73;1.07;;;;;;;;;;5018865;28;20275;-26
2023/03/31 11:30:07;;;;;;;2.57;1.10;;;;;;;;;;5031866;28;20283;-28
2023/03/31 11:32:40;;;;;;;8.00;1.20;;;;;;;;;;5025261;28;20236;-28
2023/03/31 11:35:15;;;;;;;3.77;0.70;;;;;;;;;;5026682;28;20198;-28
2023/03/31 11:38:11;;;;;;;1.37;1.17;;;;;;;;;;5012575;28;20207;-28
2023/03/31 11:40:54;;;;;;;1.80;1.00;;;;;;;;;;4970079;28;20217;-26
2023/03/31 11:43:39;;;;;;;1.67;0.57;;;;;;;;;;5018199;28;20280;-27
2023/03/31 11:46:14;;;;;;;1.93;0.27;;;;;;;;;;5013046;28;20238;-27
2023/03/31 11:48:51;;;;;;;3.30;0.47;;;;;;;;;;5013687;28;20306;-28
2023/03/31 11:54:22;;;;;;;0.57;0.40;;;;;;;;;;5013139;28;20223;-28
2023/03/31 11:57:06;;;;;;;2.30;0.50;;;;;;;;;;5020638;28;20226;-26
2023/03/31 11:59:41;;;;;;;5.57;0.67;;;;;;;;;;5021658;28;20199;-27
2023/03/31 12:02:45;;;;;;;2.63;0.40;;;;;;;;;;5021555;28;20265;-25
2023/03/31 12:05:27;;;;;;;0.37;0.20;;;;;;;;;;5016183;28;20271;-26
2023/03/31 12:08:30;;;;;;;;;;;;;;;;;;;;;
2023/03/31 12:11:30;;;;;;;1.27;0.33;;;;;;;;;;5020680;28;20207;-29
2023/03/31 12:14:21;;;;;;;0.93;0.20;;;;;;;;;;5028758;28;20223;-26
2023/03/31 12:17:15;;;;;;;0.83;0.80;;;;;;;;;;5014439;28;20207;-29
2023/03/31 12:19:56;;;;;;;2.57;0.50;;;;;;;;;;5022788;28;20210;-26
2023/03/31 12:22:38;;;;;;;0.90;0.50;;;;;;;;;;5033284;28;20217;-26
2023/03/31 12:25:54;;;;;;;0.50;0.50;;;;;;;;;;5012061;28;20261;-26
2023/03/31 12:28:39;;;;;;;0.47;0.20;;;;;;;;;;4952870;29;20213;-28
2023/03/31 12:34:16;;;;;;;0.93;0.33;;;;;;;;;;5013051;28;20234;-27
2023/03/31 12:36:57;;;;;;;1.03;0.30;;;;;;;;;;5012726;28;20250;-29
2023/03/31 12:39:33;;;;;;;0.40;0.30;;;;;;;;;;5012255;28;20213;-27
2023/03/31 12:42:22;;;;;;;2.80;0.73;;;;;;;;;;5012713;28;20237;-27
2023/03/31 12:44:58;;;;;;;0.43;0.43;;;;;;;;;;5011810;28;20262;-26
2023/03/31 12:47:38;;;;;;;0.27;0.20;;;;;;;;;;5012581;28;20207;-30
2023/03/31 12:50:29;;;;;;;0.40;0.40;;;;;;;;;;5032526;28;20222;-27
2023/03/31 12:53:15;;;;;;;0.30;0.30;;;;;;;;;;5032964;28;20325;-25
2023/03/31 12:55:56;;;;;;;1.30;0.60;;;;;;;;;;5020689;28;20226;-26
2023/03/31 12:59:03;;;;;;;0.80;0.50;;;;;;;;;;5032285;28;20202;-28
2023/03/31 13:01:40;;;;;;;0.10;0.10;;;;;;;;;;5020627;28;20214;-25
2023/03/31 13:04:19;;;;;;;0.20;0.20;;;;;;;;;;5021234;28;20231;-28
2023/03/31 13:06:58;;;;;;;0.93;0.30;;;;;;;;;;5031967;28;20225;-26
2023/03/31 13:09:59;;;;;;;0.83;0.30;;;;;;;;;;5027617;28;20222;-29
2023/03/31 13:15:23;;;;;;;0.50;0.50;;;;;;;;;;5020570;28;20209;-28
2023/03/31 13:21:04;;;;;;;0.67;0.57;;;;;;;;;;5010312;28;20208;-26
2023/03/31 13:23:43;;;;;;;1.17;0.80;;;;;;;;;;5268347;23;20233;-27
2023/03/31 13:26:30;;;;;;;2.23;0.70;;;;;;;;;;5019056;28;20234;-28
2023/03/31 13:29:25;;;;;;;2.70;0.83;;;;;;;;;;5020216;28;20219;-25
2023/03/31 13:32:10;;;;;;;2.23;0.50;;;;;;;;;;5013658;28;20268;-28
2023/03/31 13:34:44;;;;;;;0.83;0.50;;;;;;;;;;5013726;28;20245;-27
2023/03/31 13:37:31;;;;;;;1.20;0.90;;;;;;;;;;5032215;28;20301;-27
2023/03/31 13:40:31;;;;;;;2.37;0.90;;;;;;;;;;5025703;28;20203;-29
2023/03/31 13:43:30;;;;;;;1.70;0.50;;;;;;;;;;4952669;28;20380;-28
2023/03/31 13:46:21;;;;;;;5.03;0.83;;;;;;;;;;5018988;28;20207;-27
2023/03/31 13:48:58;;;;;;;0.70;0.53;;;;;;;;;;5016055;28;20238;-25
2023/03/31 13:51:41;;;;;;;2.30;0.60;;;;;;;;;;5014519;28;20202;-25
2023/03/31 13:54:37;;;;;;;2.40;0.77;;;;;;;;;;5011598;28;20266;-24
2023/03/31 13:57:31;;;;;;;4.43;1.00;;;;;;;;;;5014795;28;20207;-28
2023/03/31 14:02:55;;;;;;;1.40;0.43;;;;;;;;;;5363823;23;20323;-27
2023/03/31 14:05:34;;;;;;;1.20;0.30;;;;;;;;;;5003365;28;20195;-27
2023/03/31 14:08:05;;;;;;;0.33;0.33;;;;;;;;;;5010645;28;20249;-28
2023/03/31 14:10:40;;;;;;;0.13;0.13;;;;;;;;;;5002721;28;20358;-27
2023/03/31 14:13:11;;;;;;;0.43;0.30;;;;;;;;;;5003293;28;20249;-27
2023/03/31 14:15:41;;;;;;;0.30;0.30;;;;;;;;;;4997039;28;20214;-27
2023/03/31 14:18:16;;;;;;;0.77;0.20;;;;;;;;;;5015074;28;20289;-26
2023/03/31 14:20:53;;;;;;;1.30;0.53;;;;;;;;;;5014561;28;20206;-27
2023/03/31 14:23:27;;;;;;;0.43;0.40;;;;;;;;;;5011612;28;20309;-27
2023/03/31 14:26:01;;;;;;;0.10;0.10;;;;;;;;;;5004406;28;20234;-26
2023/03/31 14:28:36;;;;;;;0.20;0.20;;;;;;;;;;5014465;28;20195;-25
2023/03/31 14:31:19;;;;;;;1.33;0.40;;;;;;;;;;5002487;28;20226;-27
2023/03/31 14:33:55;;;;;;;1.10;0.20;;;;;;;;;;5012980;28;20322;-26
2023/03/31 14:36:29;;;;;;;0.30;0.30;;;;;;;;;;5014997;28;20203;-28
2023/03/31 14:39:03;;;;;;;1.47;0.47;;;;;;;;;;5011282;28;20211;-28
2023/03/31 14:41:32;;;;;;;0.80;0.33;;;;;;;;;;5003348;28;20242;-28
2023/03/31 14:44:02;;;;;;;0.30;0.30;;;;;;;;;;5001226;28;20227;-25
2023/03/31 14:46:37;;;;;;;1.10;0.30;;;;;;;;;;5000734;28;20210;-28
2023/03/31 14:49:34;;;;;;;0.20;0.20;;;;;;;;;;5006902;28;20203;-24
2023/03/31 14:52:07;;;;;;;0.60;0.30;;;;;;;;;;5014579;28;20214;-26
2023/03/31 14:54:48;;;;;;;0.23;0.23;;;;;;;;;;5082403;23;20242;-25
2023/03/31 14:57:30;;;;;;;0.47;0.23;;;;;;;;;;5023228;28;20210;-28
2023/03/31 15:00:06;;;;;;;0.77;0.30;;;;;;;;;;5023149;28;20215;-27
2023/03/31 15:02:36;;;;;;;0.53;0.20;;;;;;;;;;5024768;28;20288;-26
2023/03/31 15:05:23;;;;;;;0.60;0.40;;;;;;;;;;5026051;28;20273;-26
2023/03/31 15:08:19;;;;;;;1.13;0.47;;;;;;;;;;5034607;28;20302;-26
2023/03/31 15:10:51;;;;;;;1.97;0.33;;;;;;;;;;5013697;28;20218;-27
2023/03/31 15:16:25;;;;;;;0.60;0.50;;;;;;;;;;5021334;28;20218;-28
2023/03/31 15:18:55;;;;;;;1.20;0.50;;;;;;;;;;5022117;28;20286;-26
2023/03/31 15:21:29;;;;;;;1.60;0.47;;;;;;;;;;5013677;28;20207;-27
2023/03/31 15:24:07;;;;;;;1.90;0.63;;;;;;;;;;5012990;28;20262;-26
2023/03/31 15:26:48;;;;;;;0.53;0.50;;;;;;;;;;5029165;28;20210;-28
2023/03/31 15:29:25;;;;;;;0.30;0.20;;;;;;;;;;5016418;28;20212;-28
2023/03/31 15:32:01;;;;;;;0.50;0.40;;;;;;;;;;5269176;23;20242;-39
2023/03/31 15:34:43;;;;;;;1.40;0.33;;;;;;;;;;5015983;28;20241;-39